Pagrindinis puslapis
METAR-TAF:

METAR-TAF

Oro uostai :

Kristiansandas, Norvegija

platuma: 58-12N, ilguma: 008-05E, Aukštis: 1 m

Dabartinis oras

Ataskaita buvo paskelbta 31 minutes, ne 07:50 UTC
Vėjas 11 kt iš Šiaurės/Šiaurės Rytų
Temperatūra -3°C
Drėgmė 68%
Slėgis 1013 hPa
Matomumas 10 km arba daugiau
Apsiniaukę ne aukštis 2700 ft

METAR: ENCN 100750Z 03011KT 9999 OVC027 M03/M08 Q1013

Laikas: 09:21 (08:21 UTC)

Prognozė

Ataskaita buvo paskelbta 3 valandos ir 21 minutes, ne 05:00 UTC
Prognozė galioja nuo 10 metu 06 UTC su 10 metu 15 UTC
Vėjas 12 kt iš Šiaurės/Šiaurės Rytų
Matomumas 10 km arba daugiau
Su prošvaistėmis ne aukštis 2500 ft

TAF: ENCN 100500Z 1006/1015 03012KT 9999 BKN025

Orai ataskaitas ir orų prognozės (METAR, TAF).

turimą stotys yra geltonos ir raudonos taškus žemėlapyje.

Perkelti pele per norėdami pamatyti stoties vardą.

Tada spustelėkite, norėdami matyti oro stebėjimo ir prognozės.

Norėdami pakeisti žemėlapį: spustelėkite ant žalios mygtukų su juodo kryžiaus žemyn,; žalią mygtuką su brūkšneliu, jei norite nutolinti; arba žalių rodyklių gretimoms žemėlapius.


METAR-TAF: